Time;durP1;ratioP1;P1;durP2;ratioP2;P2;SDS_P1;SDS_P2;PMS_P1;PMS_P2;Temp;Humidity;BMP_temperature;BMP_pressure;BME280_temperature;BME280_humidity;BME280_pressure;Samples;Min_cycle;Max_cycle;Signal;HPM_P1;HPM_P2
2022/04/03 00:00:06;;;;;;;6.15;3.03;;;;;;;;;;4971703;28;103054;-77
2022/04/03 00:02:34;;;;;;;4.85;2.92;;;;;;;;;;4972657;28;98679;-78
2022/04/03 00:05:00;;;;;;;4.30;2.90;;;;;;;;;;4956305;28;101792;-76
2022/04/03 00:07:27;;;;;;;4.78;3.05;;;;;;;;;;4955945;28;102448;-78
2022/04/03 00:09:56;;;;;;;7.10;3.35;;;;;;;;;;4956702;28;98534;-78
2022/04/03 00:12:23;;;;;;;4.60;3.03;;;;;;;;;;4958748;28;101721;-82
2022/04/03 00:14:50;;;;;;;7.15;3.13;;;;;;;;;;4940163;28;98430;-76
2022/04/03 00:17:17;;;;;;;3.40;2.97;;;;;;;;;;4988689;28;100789;-79
2022/04/03 00:19:43;;;;;;;4.13;2.80;;;;;;;;;;4976415;28;101828;-77
2022/04/03 00:22:14;;;;;;;3.83;2.70;;;;;;;;;;4977274;28;98547;-77
2022/04/03 00:24:41;;;;;;;3.50;2.97;;;;;;;;;;4976267;28;101819;-76
2022/04/03 00:27:08;;;;;;;3.80;3.10;;;;;;;;;;4977461;28;100490;-77
2022/04/03 00:29:34;;;;;;;4.55;2.80;;;;;;;;;;4978425;28;98429;-76
2022/04/03 00:32:02;;;;;;;5.18;2.60;;;;;;;;;;4976653;28;101640;-78
2022/04/03 00:34:28;;;;;;;5.05;2.80;;;;;;;;;;4996031;28;102633;-77
2022/04/03 00:36:55;;;;;;;3.35;3.05;;;;;;;;;;4992782;28;101613;-77
2022/04/03 00:39:22;;;;;;;4.30;2.65;;;;;;;;;;4992425;28;102625;-77
2022/04/03 00:41:48;;;;;;;3.92;3.10;;;;;;;;;;4993993;28;97638;-78
2022/04/03 00:44:16;;;;;;;3.65;2.90;;;;;;;;;;4993112;28;101283;-78
2022/04/03 00:46:43;;;;;;;3.15;2.85;;;;;;;;;;4975734;28;102259;-77
2022/04/03 00:49:10;;;;;;;3.88;3.10;;;;;;;;;;4992786;28;99125;-78
2022/04/03 00:51:37;;;;;;;3.83;3.25;;;;;;;;;;4994249;28;100110;-78
2022/04/03 00:54:04;;;;;;;3.63;3.33;;;;;;;;;;4975708;28;102193;-78
2022/04/03 00:56:31;;;;;;;9.23;3.38;;;;;;;;;;4996192;28;98464;-78
2022/04/03 00:58:58;;;;;;;3.58;3.03;;;;;;;;;;4975760;28;102028;-78
2022/04/03 01:01:24;;;;;;;6.80;2.78;;;;;;;;;;4994249;28;98356;-76
2022/04/03 01:03:51;;;;;;;8.10;3.17;;;;;;;;;;4992818;28;102264;-78
2022/04/03 01:06:17;;;;;;;6.60;3.35;;;;;;;;;;4976871;28;100330;-79
2022/04/03 01:08:46;;;;;;;3.70;3.35;;;;;;;;;;4996862;28;98788;-78
2022/04/03 01:11:13;;;;;;;7.18;3.42;;;;;;;;;;4997271;28;100088;-77
2022/04/03 01:13:44;;;;;;;6.10;3.55;;;;;;;;;;4978591;28;102080;-78
2022/04/03 01:16:11;;;;;;;3.30;3.00;;;;;;;;;;4994735;28;98324;-79
2022/04/03 01:18:38;;;;;;;3.88;3.20;;;;;;;;;;4980450;28;102222;-78
2022/04/03 01:21:05;;;;;;;3.28;2.70;;;;;;;;;;4995227;28;98350;-78
2022/04/03 01:23:31;;;;;;;4.22;3.00;;;;;;;;;;4994416;28;98909;-77
2022/04/03 01:25:58;;;;;;;3.67;3.08;;;;;;;;;;4990598;28;99105;-78
2022/04/03 01:28:24;;;;;;;4.78;3.15;;;;;;;;;;4992305;28;98324;-78
2022/04/03 01:30:51;;;;;;;5.50;2.78;;;;;;;;;;4976469;28;102502;-77
2022/04/03 01:33:17;;;;;;;4.97;3.13;;;;;;;;;;4992009;28;100197;-77
2022/04/03 01:35:44;;;;;;;3.50;3.17;;;;;;;;;;4993477;28;98496;-78
2022/04/03 01:38:11;;;;;;;3.63;3.33;;;;;;;;;;4992156;28;99585;-79
2022/04/03 01:40:37;;;;;;;6.15;3.30;;;;;;;;;;4995603;28;99390;-77
2022/04/03 01:43:08;;;;;;;5.50;3.75;;;;;;;;;;4992496;28;98653;-77
2022/04/03 01:45:35;;;;;;;4.60;3.53;;;;;;;;;;4993015;28;99213;-77
2022/04/03 01:48:02;;;;;;;4.28;3.03;;;;;;;;;;4975596;28;98450;-76
2022/04/03 01:50:29;;;;;;;3.40;3.13;;;;;;;;;;4992322;28;100673;-77
2022/04/03 01:52:55;;;;;;;10.35;3.72;;;;;;;;;;4991650;28;102475;-79
2022/04/03 01:55:24;;;;;;;4.72;3.47;;;;;;;;;;4975835;28;98008;-78
2022/04/03 01:57:50;;;;;;;7.82;3.25;;;;;;;;;;4993349;28;98465;-78
2022/04/03 02:00:17;;;;;;;4.15;3.13;;;;;;;;;;4992844;28;99451;-77
2022/04/03 02:02:43;;;;;;;6.40;3.00;;;;;;;;;;4995180;28;99071;-78
2022/04/03 02:05:12;;;;;;;7.72;3.72;;;;;;;;;;4992487;28;99457;-78
2022/04/03 02:07:39;;;;;;;4.13;3.10;;;;;;;;;;4991197;28;99099;-78
2022/04/03 02:10:09;;;;;;;4.90;3.30;;;;;;;;;;4975609;28;101679;-78
2022/04/03 02:12:36;;;;;;;5.05;3.10;;;;;;;;;;4991955;28;100273;-78
2022/04/03 02:15:05;;;;;;;3.38;2.88;;;;;;;;;;4992913;28;98354;-78
2022/04/03 02:17:31;;;;;;;6.28;3.30;;;;;;;;;;4992434;28;98940;-78
2022/04/03 02:19:58;;;;;;;4.78;3.20;;;;;;;;;;4992958;28;98332;-78
2022/04/03 02:22:24;;;;;;;4.72;3.50;;;;;;;;;;4994704;28;98518;-78
2022/04/03 02:24:51;;;;;;;8.63;3.20;;;;;;;;;;4992321;28;99417;-80
2022/04/03 02:27:17;;;;;;;5.40;3.10;;;;;;;;;;4992742;28;99137;-80
2022/04/03 02:29:44;;;;;;;4.35;3.58;;;;;;;;;;4993275;28;99762;-78
2022/04/03 02:32:10;;;;;;;4.15;3.75;;;;;;;;;;4974944;28;102234;-78
2022/04/03 02:34:37;;;;;;;3.67;3.38;;;;;;;;;;4992570;28;98383;-79
2022/04/03 02:37:09;;;;;;;5.47;3.33;;;;;;;;;;4992132;28;99230;-80
2022/04/03 02:39:37;;;;;;;4.75;3.08;;;;;;;;;;4974146;28;101037;-78
2022/04/03 02:42:04;;;;;;;4.65;3.53;;;;;;;;;;4994856;28;98428;-79
2022/04/03 02:44:32;;;;;;;4.90;3.50;;;;;;;;;;4998460;28;101763;-79
2022/04/03 02:46:58;;;;;;;6.13;3.10;;;;;;;;;;4995350;28;98394;-78
2022/04/03 02:49:25;;;;;;;4.78;3.55;;;;;;;;;;4996350;28;99025;-78
2022/04/03 02:51:52;;;;;;;4.20;3.72;;;;;;;;;;4977655;28;102339;-79
2022/04/03 02:54:19;;;;;;;4.93;3.50;;;;;;;;;;4978058;28;98542;-79
2022/04/03 02:56:45;;;;;;;5.93;3.95;;;;;;;;;;4994887;28;101913;-80
2022/04/03 02:59:12;;;;;;;4.03;3.63;;;;;;;;;;4994218;28;102042;-79
2022/04/03 03:01:39;;;;;;;7.35;4.35;;;;;;;;;;4978370;28;98431;-79
2022/04/03 03:04:09;;;;;;;6.82;4.60;;;;;;;;;;4978377;28;101754;-80
2022/04/03 03:06:35;;;;;;;4.30;3.70;;;;;;;;;;4997633;28;102009;-79
2022/04/03 03:09:04;;;;;;;6.80;4.18;;;;;;;;;;4978698;28;100035;-80
2022/04/03 03:11:33;;;;;;;4.22;3.70;;;;;;;;;;4978075;28;102010;-79
2022/04/03 03:13:59;;;;;;;7.80;3.83;;;;;;;;;;4994572;28;98479;-78
2022/04/03 03:16:26;;;;;;;5.00;3.35;;;;;;;;;;4987599;28;102058;-78
2022/04/03 03:18:52;;;;;;;4.63;3.42;;;;;;;;;;4999961;28;101947;-76
2022/04/03 03:21:22;;;;;;;5.03;3.10;;;;;;;;;;4978346;28;98593;-77
2022/04/03 03:23:48;;;;;;;6.55;3.28;;;;;;;;;;4977972;28;102130;-76
2022/04/03 03:26:15;;;;;;;4.72;3.08;;;;;;;;;;4993651;28;102017;-79
2022/04/03 03:28:46;;;;;;;3.50;3.20;;;;;;;;;;4981221;28;98392;-78
2022/04/03 03:31:12;;;;;;;3.65;3.35;;;;;;;;;;4977210;28;102325;-79
2022/04/03 03:33:38;;;;;;;5.00;3.38;;;;;;;;;;4978109;28;97671;-79
2022/04/03 03:36:05;;;;;;;4.70;3.08;;;;;;;;;;4993780;28;101676;-79
2022/04/03 03:38:32;;;;;;;3.35;3.05;;;;;;;;;;4976675;28;101905;-79
2022/04/03 03:40:58;;;;;;;4.07;3.55;;;;;;;;;;4993396;28;99056;-79
2022/04/03 03:43:25;;;;;;;3.08;2.88;;;;;;;;;;4994022;28;102364;-77
2022/04/03 03:45:51;;;;;;;3.50;3.20;;;;;;;;;;4993452;28;101937;-78
2022/04/03 03:48:18;;;;;;;5.28;3.53;;;;;;;;;;4977064;28;98491;-81
2022/04/03 03:50:45;;;;;;;6.60;3.22;;;;;;;;;;4979988;28;101854;-78
2022/04/03 03:53:12;;;;;;;4.30;3.33;;;;;;;;;;4977275;28;98486;-78
2022/04/03 03:55:40;;;;;;;4.22;3.58;;;;;;;;;;4994957;28;98472;-78
2022/04/03 03:58:07;;;;;;;3.90;3.50;;;;;;;;;;4977165;28;101944;-78
2022/04/03 04:00:35;;;;;;;3.15;2.88;;;;;;;;;;4989833;28;98390;-76
2022/04/03 04:03:02;;;;;;;5.55;3.85;;;;;;;;;;4977173;28;101788;-78
2022/04/03 04:05:30;;;;;;;3.35;3.10;;;;;;;;;;4992907;28;102783;-78
2022/04/03 04:07:56;;;;;;;4.97;3.08;;;;;;;;;;4977277;28;98615;-78
2022/04/03 04:10:23;;;;;;;3.38;3.03;;;;;;;;;;4994090;28;98718;-78
2022/04/03 04:12:51;;;;;;;4.50;3.47;;;;;;;;;;4996838;28;99501;-78
2022/04/03 04:15:18;;;;;;;7.38;3.42;;;;;;;;;;4994761;28;99033;-78
2022/04/03 04:17:45;;;;;;;7.07;3.10;;;;;;;;;;4976277;28;100026;-78
2022/04/03 04:20:13;;;;;;;7.30;3.28;;;;;;;;;;4992975;28;98447;-77
2022/04/03 04:22:40;;;;;;;4.25;3.35;;;;;;;;;;4994136;28;101638;-78
2022/04/03 04:25:06;;;;;;;3.92;2.85;;;;;;;;;;4994124;28;99678;-77
2022/04/03 04:27:33;;;;;;;3.55;3.25;;;;;;;;;;4977170;28;98364;-77
2022/04/03 04:29:59;;;;;;;3.72;3.15;;;;;;;;;;4994810;28;99304;-77
2022/04/03 04:32:26;;;;;;;7.88;3.58;;;;;;;;;;4997275;28;99072;-77
2022/04/03 04:34:52;;;;;;;3.88;3.17;;;;;;;;;;4976750;28;100820;-78
2022/04/03 04:37:19;;;;;;;3.50;3.20;;;;;;;;;;4994553;28;99085;-78
2022/04/03 04:39:46;;;;;;;3.88;3.35;;;;;;;;;;4994138;28;98436;-77
2022/04/03 04:42:13;;;;;;;8.07;3.40;;;;;;;;;;4994609;28;99148;-78
2022/04/03 04:44:39;;;;;;;3.83;3.50;;;;;;;;;;4992560;28;98556;-78
2022/04/03 04:47:06;;;;;;;4.50;3.50;;;;;;;;;;5000043;28;97675;-77
2022/04/03 04:49:33;;;;;;;3.88;2.95;;;;;;;;;;5000214;28;99411;-77
2022/04/03 04:51:59;;;;;;;3.70;3.33;;;;;;;;;;5002251;28;99225;-77
2022/04/03 04:54:26;;;;;;;4.55;3.00;;;;;;;;;;5003477;28;99173;-78
2022/04/03 04:56:53;;;;;;;4.57;3.22;;;;;;;;;;4999171;28;99281;-77
2022/04/03 04:59:19;;;;;;;3.35;3.05;;;;;;;;;;5001636;28;98214;-78
2022/04/03 05:01:46;;;;;;;4.25;3.00;;;;;;;;;;4998619;28;98777;-78
2022/04/03 05:04:12;;;;;;;4.07;2.97;;;;;;;;;;5002391;28;99489;-76
2022/04/03 05:06:39;;;;;;;3.92;3.30;;;;;;;;;;4999006;28;98515;-77
2022/04/03 05:09:05;;;;;;;4.10;3.22;;;;;;;;;;4994892;28;100017;-76
2022/04/03 05:11:32;;;;;;;3.72;3.42;;;;;;;;;;4994510;28;98533;-79
2022/04/03 05:13:58;;;;;;;5.13;3.42;;;;;;;;;;4993574;28;98430;-78
2022/04/03 05:16:25;;;;;;;5.70;3.45;;;;;;;;;;4979377;28;99715;-77
2022/04/03 05:18:52;;;;;;;5.85;3.63;;;;;;;;;;4993615;28;99115;-75
2022/04/03 05:21:18;;;;;;;5.50;3.85;;;;;;;;;;4994034;28;99712;-77
2022/04/03 05:23:45;;;;;;;6.05;4.10;;;;;;;;;;5003406;28;99710;-75
2022/04/03 05:26:11;;;;;;;6.47;4.00;;;;;;;;;;5001530;28;98499;-76
2022/04/03 05:28:37;;;;;;;8.13;4.47;;;;;;;;;;4992206;28;100465;-76
2022/04/03 05:31:04;;;;;;;7.82;4.90;;;;;;;;;;4993318;28;99698;-76
2022/04/03 05:33:30;;;;;;;7.45;5.47;;;;;;;;;;4993694;28;98329;-77
2022/04/03 05:35:59;;;;;;;7.90;7.10;;;;;;;;;;4994306;28;98930;-75
2022/04/03 05:38:25;;;;;;;10.82;7.85;;;;;;;;;;4996252;28;99263;-75
2022/04/03 05:40:51;;;;;;;12.15;8.07;;;;;;;;;;4975828;28;101430;-75
2022/04/03 05:43:18;;;;;;;12.85;8.63;;;;;;;;;;4992359;28;100007;-76
2022/04/03 05:45:45;;;;;;;10.00;7.55;;;;;;;;;;4993272;28;98585;-76
2022/04/03 05:48:12;;;;;;;13.30;9.15;;;;;;;;;;4991812;28;101813;-76
2022/04/03 05:50:38;;;;;;;13.05;9.48;;;;;;;;;;4992788;28;99611;-75
2022/04/03 05:53:05;;;;;;;12.52;9.65;;;;;;;;;;4993377;28;98457;-77
2022/04/03 05:55:31;;;;;;;14.00;10.45;;;;;;;;;;4993152;28;99535;-77
2022/04/03 05:57:58;;;;;;;13.07;9.88;;;;;;;;;;4991199;28;99407;-75
2022/04/03 06:00:24;;;;;;;15.95;11.57;;;;;;;;;;4996848;28;97813;-76
2022/04/03 06:02:55;;;;;;;12.60;11.25;;;;;;;;;;4990640;28;100548;-76
2022/04/03 06:05:25;;;;;;;18.77;12.18;;;;;;;;;;4992302;28;98418;-76
2022/04/03 06:07:58;;;;;;;16.17;12.82;;;;;;;;;;4992006;28;99437;-75
2022/04/03 06:10:25;;;;;;;13.55;11.52;;;;;;;;;;4991475;28;99968;-76
2022/04/03 06:13:02;;;;;;;14.50;9.73;;;;;;;;;;4991195;28;98508;-76
2022/04/03 06:15:34;;;;;;;12.82;10.50;;;;;;;;;;4995301;28;99156;-78
2022/04/03 06:18:01;;;;;;;;;;;;;;;;;;4995936;28;99191;-79
2022/04/03 06:20:28;;;;;;;13.75;10.82;;;;;;;;;;4995544;28;118379;-77
2022/04/03 06:22:54;;;;;;;11.05;9.93;;;;;;;;;;4998117;28;99581;-76
2022/04/03 06:25:21;;;;;;;13.00;9.65;;;;;;;;;;4996730;28;97659;-75
2022/04/03 06:27:48;;;;;;;12.23;10.18;;;;;;;;;;4996249;28;98914;-77
2022/04/03 06:30:15;;;;;;;13.30;10.50;;;;;;;;;;4995556;28;99210;-76
2022/04/03 06:32:41;;;;;;;10.85;9.65;;;;;;;;;;4995082;28;99148;-76
2022/04/03 06:35:16;;;;;;;11.80;10.35;;;;;;;;;;4997551;28;101030;-76
2022/04/03 06:38:26;;;;;;;11.85;10.43;;;;;;;;;;4995127;28;99405;-78
2022/04/03 06:41:13;;;;;;;11.23;9.68;;;;;;;;;;4993950;28;98433;-79
2022/04/03 06:43:44;;;;;;;10.43;9.43;;;;;;;;;;4997316;28;98991;-79
2022/04/03 06:46:18;;;;;;;12.80;9.65;;;;;;;;;;4979271;28;98439;-79
2022/04/03 06:48:58;;;;;;;13.25;9.25;;;;;;;;;;4979419;28;103707;-80
2022/04/03 06:51:25;;;;;;;11.70;9.90;;;;;;;;;;4995376;28;100195;-79
2022/04/03 06:53:52;;;;;;;10.43;9.32;;;;;;;;;;4995536;28;98446;-80
2022/04/03 06:56:19;;;;;;;11.35;9.05;;;;;;;;;;4995990;28;99098;-79
2022/04/03 06:58:46;;;;;;;10.23;9.23;;;;;;;;;;4995130;28;99924;-75
2022/04/03 07:01:13;;;;;;;16.05;8.80;;;;;;;;;;4995568;28;98387;-74
2022/04/03 07:03:39;;;;;;;9.65;8.63;;;;;;;;;;4995412;28;99351;-74
2022/04/03 07:06:08;;;;;;;12.73;8.60;;;;;;;;;;4997694;28;101892;-75
2022/04/03 07:08:35;;;;;;;9.73;7.93;;;;;;;;;;4995935;28;98881;-74
2022/04/03 07:11:03;;;;;;;8.43;7.60;;;;;;;;;;4994875;28;99648;-75
2022/04/03 07:13:29;;;;;;;10.50;7.38;;;;;;;;;;4995619;28;98348;-76
2022/04/03 07:15:55;;;;;;;7.05;6.40;;;;;;;;;;4996126;28;98928;-75
2022/04/03 07:18:22;;;;;;;6.65;6.05;;;;;;;;;;4995059;28;99662;-75
2022/04/03 07:20:48;;;;;;;8.13;6.43;;;;;;;;;;4995555;28;98207;-74
2022/04/03 07:23:15;;;;;;;6.70;6.10;;;;;;;;;;4994553;28;99100;-74
2022/04/03 07:25:41;;;;;;;7.53;5.97;;;;;;;;;;4993486;28;99204;-73
2022/04/03 07:28:08;;;;;;;6.63;5.68;;;;;;;;;;4997612;28;98936;-74
2022/04/03 07:30:34;;;;;;;5.43;5.07;;;;;;;;;;4994050;28;101415;-76
2022/04/03 07:33:01;;;;;;;5.95;5.38;;;;;;;;;;4994757;28;98417;-74
2022/04/03 07:35:27;;;;;;;5.97;5.32;;;;;;;;;;4994684;28;100420;-71
2022/04/03 07:37:53;;;;;;;7.78;5.63;;;;;;;;;;4994684;28;99986;-74
2022/04/03 07:40:20;;;;;;;8.70;5.75;;;;;;;;;;4995298;28;97629;-75
2022/04/03 07:43:06;;;;;;;9.57;5.60;;;;;;;;;;4994427;28;98543;-76
2022/04/03 07:45:33;;;;;;;6.70;5.60;;;;;;;;;;4993186;28;100757;-75
2022/04/03 07:47:59;;;;;;;6.13;5.40;;;;;;;;;;4994348;28;99668;-75
2022/04/03 07:50:27;;;;;;;7.43;5.95;;;;;;;;;;4997875;28;100432;-75
2022/04/03 07:52:53;;;;;;;5.93;5.32;;;;;;;;;;4994650;28;98556;-74
2022/04/03 07:55:20;;;;;;;6.28;5.63;;;;;;;;;;4994563;28;99779;-75
2022/04/03 07:57:46;;;;;;;7.32;5.50;;;;;;;;;;4993663;28;99828;-78
2022/04/03 08:00:13;;;;;;;5.28;4.80;;;;;;;;;;4995032;28;98414;-78
2022/04/03 08:02:40;;;;;;;6.35;4.55;;;;;;;;;;4994601;28;98640;-75
2022/04/03 08:05:07;;;;;;;6.00;4.15;;;;;;;;;;4995087;28;98904;-76
2022/04/03 08:07:40;;;;;;;5.32;4.50;;;;;;;;;;4994437;28;98364;-74
2022/04/03 08:10:08;;;;;;;4.55;4.25;;;;;;;;;;4994657;28;98842;-75
2022/04/03 08:12:35;;;;;;;4.43;4.03;;;;;;;;;;4997134;28;100309;-74
2022/04/03 08:15:02;;;;;;;2.60;2.40;;;;;;;;;;4994418;28;100240;-75
2022/04/03 08:17:29;;;;;;;7.60;2.90;;;;;;;;;;4993942;28;100399;-73
2022/04/03 08:19:55;;;;;;;4.10;2.70;;;;;;;;;;4994754;28;98202;-74
2022/04/03 08:22:22;;;;;;;4.22;3.05;;;;;;;;;;4994470;28;99820;-76
2022/04/03 08:24:49;;;;;;;3.17;2.92;;;;;;;;;;4993834;28;99607;-77
2022/04/03 08:27:16;;;;;;;4.13;3.15;;;;;;;;;;4994277;28;98429;-76
2022/04/03 08:29:43;;;;;;;3.63;3.35;;;;;;;;;;4994964;28;99921;-74
2022/04/03 08:32:09;;;;;;;3.17;2.85;;;;;;;;;;4994086;28;99865;-76
2022/04/03 08:34:36;;;;;;;3.75;2.55;;;;;;;;;;4996261;28;99076;-76
2022/04/03 08:37:09;;;;;;;3.75;3.00;;;;;;;;;;4989530;28;100056;-75
2022/04/03 08:39:35;;;;;;;4.57;3.00;;;;;;;;;;4988289;28;98481;-76
2022/04/03 08:42:02;;;;;;;3.38;1.83;;;;;;;;;;4993537;28;99708;-75
2022/04/03 08:44:29;;;;;;;1.80;1.70;;;;;;;;;;4991788;28;99483;-75
2022/04/03 08:46:58;;;;;;;3.35;1.70;;;;;;;;;;4993336;28;99297;-76
2022/04/03 08:49:26;;;;;;;7.15;1.75;;;;;;;;;;4993082;28;99460;-75
2022/04/03 08:51:53;;;;;;;1.67;1.38;;;;;;;;;;4992259;28;100089;-77
2022/04/03 08:54:20;;;;;;;1.40;0.90;;;;;;;;;;4997386;28;99071;-76
2022/04/03 08:56:47;;;;;;;1.60;1.17;;;;;;;;;;4992739;28;100045;-75
2022/04/03 08:59:13;;;;;;;2.00;1.02;;;;;;;;;;4992985;28;98583;-77
2022/04/03 09:01:39;;;;;;;1.98;0.90;;;;;;;;;;4992624;28;99868;-76
2022/04/03 09:04:06;;;;;;;0.70;0.70;;;;;;;;;;4993159;28;99132;-77
2022/04/03 09:06:32;;;;;;;2.90;1.10;;;;;;;;;;4992679;28;98879;-75
2022/04/03 09:08:59;;;;;;;2.95;1.33;;;;;;;;;;4992531;28;100258;-76
2022/04/03 09:11:29;;;;;;;0.65;0.65;;;;;;;;;;4992859;28;100007;-78
2022/04/03 09:13:55;;;;;;;3.22;1.02;;;;;;;;;;4993129;28;99267;-77
2022/04/03 09:16:36;;;;;;;2.70;1.10;;;;;;;;;;4996135;28;99420;-75
2022/04/03 09:19:03;;;;;;;2.13;0.97;;;;;;;;;;4992312;28;97934;-78
2022/04/03 09:21:32;;;;;;;4.35;1.30;;;;;;;;;;4993306;28;98855;-75
2022/04/03 09:24:02;;;;;;;0.93;0.93;;;;;;;;;;4992716;28;99086;-73
2022/04/03 09:26:30;;;;;;;1.23;1.13;;;;;;;;;;4992525;28;99998;-74
2022/04/03 09:29:06;;;;;;;1.70;1.27;;;;;;;;;;4992480;28;100619;-74
2022/04/03 09:31:34;;;;;;;1.33;1.27;;;;;;;;;;4992067;28;100001;-74
2022/04/03 09:34:01;;;;;;;1.85;1.30;;;;;;;;;;4992858;28;98487;-74
2022/04/03 09:36:34;;;;;;;1.90;1.42;;;;;;;;;;4988902;28;99469;-79
2022/04/03 09:39:24;;;;;;;1.80;1.27;;;;;;;;;;4992073;28;99267;-76
2022/04/03 09:42:00;;;;;;;2.63;1.50;;;;;;;;;;4992319;28;99539;-76
2022/04/03 09:44:36;;;;;;;6.18;1.40;;;;;;;;;;4989175;28;99014;-78
2022/04/03 09:47:12;;;;;;;2.85;1.40;;;;;;;;;;4989085;28;98316;-77
2022/04/03 09:49:39;;;;;;;1.50;1.40;;;;;;;;;;4992380;28;98655;-78
2022/04/03 09:52:09;;;;;;;2.35;1.40;;;;;;;;;;4983823;28;101648;-76
2022/04/03 09:54:39;;;;;;;2.38;1.60;;;;;;;;;;4991904;28;100129;-77
2022/04/03 09:57:21;;;;;;;3.05;1.10;;;;;;;;;;4992355;28;99427;-75
2022/04/03 09:59:52;;;;;;;2.97;1.42;;;;;;;;;;4990492;28;99024;-74
2022/04/03 10:02:20;;;;;;;2.13;1.52;;;;;;;;;;4995771;28;98648;-74
2022/04/03 10:04:47;;;;;;;2.78;1.50;;;;;;;;;;4991723;28;99398;-73
2022/04/03 10:07:14;;;;;;;2.53;1.77;;;;;;;;;;4991691;28;98625;-76
2022/04/03 10:09:46;;;;;;;5.45;1.73;;;;;;;;;;4992896;28;99396;-74
2022/04/03 10:12:16;;;;;;;3.83;1.88;;;;;;;;;;4992332;28;99129;-73
2022/04/03 10:14:47;;;;;;;1.75;1.65;;;;;;;;;;4986985;28;98485;-73
2022/04/03 10:17:13;;;;;;;3.20;2.10;;;;;;;;;;4986253;28;99969;-74
2022/04/03 10:19:40;;;;;;;3.05;1.95;;;;;;;;;;4991306;28;99784;-74
2022/04/03 10:22:10;;;;;;;2.13;1.90;;;;;;;;;;4969544;28;98594;-75
2022/04/03 10:24:38;;;;;;;3.60;2.35;;;;;;;;;;4995369;28;100283;-74
2022/04/03 10:27:08;;;;;;;4.63;2.42;;;;;;;;;;4992367;28;98857;-74
2022/04/03 10:29:37;;;;;;;2.50;2.15;;;;;;;;;;4993883;28;99518;-74
2022/04/03 10:32:04;;;;;;;2.80;2.00;;;;;;;;;;5000356;28;98760;-75
2022/04/03 10:34:43;;;;;;;3.53;2.08;;;;;;;;;;5000888;28;97436;-74
2022/04/03 10:37:24;;;;;;;2.25;1.52;;;;;;;;;;4998411;28;98230;-74
2022/04/03 10:39:54;;;;;;;1.40;1.30;;;;;;;;;;4997798;28;98705;-76
2022/04/03 10:42:25;;;;;;;5.63;1.20;;;;;;;;;;4997886;28;99207;-74
2022/04/03 10:45:10;;;;;;;3.40;1.00;;;;;;;;;;4996125;28;99627;-74
2022/04/03 10:47:37;;;;;;;3.92;1.45;;;;;;;;;;4991834;28;98459;-76
2022/04/03 10:50:05;;;;;;;1.60;1.50;;;;;;;;;;4984566;28;98902;-74
2022/04/03 10:52:37;;;;;;;6.05;1.48;;;;;;;;;;4991484;28;100706;-75
2022/04/03 10:55:17;;;;;;;1.30;0.70;;;;;;;;;;4986428;28;98434;-74
2022/04/03 10:57:44;;;;;;;1.80;0.90;;;;;;;;;;4991358;28;100224;-76
2022/04/03 11:00:14;;;;;;;0.90;0.90;;;;;;;;;;4991954;28;99029;-73
2022/04/03 11:02:44;;;;;;;5.20;0.88;;;;;;;;;;4994048;28;98467;-73
2022/04/03 11:05:24;;;;;;;2.03;1.00;;;;;;;;;;4995184;28;99586;-75
2022/04/03 11:07:51;;;;;;;1.08;0.88;;;;;;;;;;4997212;28;100015;-74
2022/04/03 11:10:38;;;;;;;2.72;1.25;;;;;;;;;;4995203;28;99822;-73
2022/04/03 11:13:08;;;;;;;0.75;0.75;;;;;;;;;;4992698;28;99594;-70
2022/04/03 11:15:51;;;;;;;1.08;0.77;;;;;;;;;;4997590;28;98515;-71
2022/04/03 11:18:28;;;;;;;2.53;0.80;;;;;;;;;;4998089;28;100785;-74
2022/04/03 11:21:11;;;;;;;0.98;0.88;;;;;;;;;;4992856;28;99998;-74
2022/04/03 11:23:41;;;;;;;1.77;1.40;;;;;;;;;;4992762;28;98534;-75
2022/04/03 11:26:08;;;;;;;2.67;1.20;;;;;;;;;;4991777;28;101114;-74
2022/04/03 11:28:36;;;;;;;2.17;1.02;;;;;;;;;;4987695;28;102257;-75
2022/04/03 11:31:03;;;;;;;0.80;0.80;;;;;;;;;;4998252;28;98398;-74
2022/04/03 11:33:32;;;;;;;1.67;0.68;;;;;;;;;;4990267;28;101255;-76
2022/04/03 11:36:06;;;;;;;0.95;0.85;;;;;;;;;;4990917;28;98364;-75
2022/04/03 11:38:34;;;;;;;1.73;0.80;;;;;;;;;;4990533;28;99668;-74
2022/04/03 11:41:01;;;;;;;0.70;0.70;;;;;;;;;;4989741;28;100688;-74
2022/04/03 11:43:28;;;;;;;1.30;0.90;;;;;;;;;;4994064;28;98401;-74
2022/04/03 11:45:55;;;;;;;1.42;0.93;;;;;;;;;;4994289;28;100111;-73
2022/04/03 11:48:23;;;;;;;0.55;0.55;;;;;;;;;;4993197;28;99972;-78
2022/04/03 11:51:01;;;;;;;0.98;0.85;;;;;;;;;;4994721;28;97879;-75
2022/04/03 11:53:27;;;;;;;1.42;0.90;;;;;;;;;;4997016;28;98731;-74
2022/04/03 11:55:55;;;;;;;1.02;0.93;;;;;;;;;;4987900;28;99233;-74
2022/04/03 11:58:29;;;;;;;3.13;1.00;;;;;;;;;;4993531;28;99149;-74
2022/04/03 12:00:57;;;;;;;1.23;1.08;;;;;;;;;;4993926;28;99893;-74
2022/04/03 12:03:24;;;;;;;1.27;1.17;;;;;;;;;;4994287;28;98327;-74
2022/04/03 12:05:51;;;;;;;1.25;0.90;;;;;;;;;;4994426;28;99801;-74
2022/04/03 12:08:18;;;;;;;1.10;1.10;;;;;;;;;;4994187;28;100244;-74
2022/04/03 12:10:44;;;;;;;1.30;1.20;;;;;;;;;;4990883;28;98442;-75
2022/04/03 12:13:16;;;;;;;1.85;1.40;;;;;;;;;;4994085;28;99934;-73
2022/04/03 12:15:43;;;;;;;3.22;1.50;;;;;;;;;;4997973;28;99368;-75
2022/04/03 12:18:24;;;;;;;3.20;1.37;;;;;;;;;;4994363;28;98808;-78
2022/04/03 12:20:51;;;;;;;3.30;1.63;;;;;;;;;;4994211;28;99608;-77
2022/04/03 12:23:17;;;;;;;1.63;1.52;;;;;;;;;;4993847;28;99137;-76
2022/04/03 12:25:44;;;;;;;3.70;1.73;;;;;;;;;;4994653;28;100021;-76
2022/04/03 12:28:11;;;;;;;1.50;1.40;;;;;;;;;;4993900;28;98959;-74
2022/04/03 12:30:38;;;;;;;4.82;1.55;;;;;;;;;;4976884;28;98475;-74
2022/04/03 12:33:05;;;;;;;1.50;1.40;;;;;;;;;;4993942;28;99348;-76
2022/04/03 12:35:32;;;;;;;2.85;1.30;;;;;;;;;;4994004;28;99536;-74
2022/04/03 12:38:18;;;;;;;2.88;1.38;;;;;;;;;;4997668;28;98268;-77
2022/04/03 12:40:45;;;;;;;1.52;1.40;;;;;;;;;;4994554;28;99000;-75
2022/04/03 12:43:12;;;;;;;1.45;1.35;;;;;;;;;;4959271;28;98576;-76
2022/04/03 12:45:39;;;;;;;2.25;1.27;;;;;;;;;;4994116;28;98956;-76
2022/04/03 12:48:06;;;;;;;4.13;1.10;;;;;;;;;;4991702;28;100049;-77
2022/04/03 12:50:43;;;;;;;3.42;1.35;;;;;;;;;;4993339;28;98945;-77
2022/04/03 12:53:14;;;;;;;1.73;1.40;;;;;;;;;;4993525;28;99503;-77
2022/04/03 12:55:41;;;;;;;1.73;1.63;;;;;;;;;;4993119;28;99652;-77
2022/04/03 12:58:25;;;;;;;2.90;1.48;;;;;;;;;;4996533;28;98361;-80
2022/04/03 13:00:55;;;;;;;4.57;1.52;;;;;;;;;;4989776;28;98931;-75
2022/04/03 13:03:24;;;;;;;1.65;1.38;;;;;;;;;;4983344;28;98451;-75
2022/04/03 13:05:55;;;;;;;1.80;1.40;;;;;;;;;;4993492;28;99089;-75
2022/04/03 13:08:21;;;;;;;1.58;1.48;;;;;;;;;;4989317;28;99767;-77
2022/04/03 13:10:55;;;;;;;1.25;1.20;;;;;;;;;;4993117;28;98673;-80
2022/04/03 13:13:23;;;;;;;2.85;1.30;;;;;;;;;;4988610;28;99112;-73
2022/04/03 13:15:50;;;;;;;3.50;1.20;;;;;;;;;;4992455;28;101267;-74
2022/04/03 13:18:17;;;;;;;1.75;1.17;;;;;;;;;;4990804;28;98710;-75
2022/04/03 13:20:59;;;;;;;0.85;0.75;;;;;;;;;;4995029;28;99380;-76
2022/04/03 13:23:26;;;;;;;;;;;;;;;;;;4989336;28;98553;-75
2022/04/03 13:25:52;;;;;;;1.77;0.50;;;;;;;;;;4991299;28;127618;-74
2022/04/03 13:28:19;;;;;;;0.50;0.50;;;;;;;;;;4992551;28;99474;-73
2022/04/03 13:30:49;;;;;;;0.75;0.68;;;;;;;;;;4992754;28;97694;-73
2022/04/03 13:33:15;;;;;;;2.15;0.77;;;;;;;;;;4992336;28;99290;-74
2022/04/03 13:35:43;;;;;;;2.03;0.80;;;;;;;;;;4992406;28;99739;-74
2022/04/03 13:38:11;;;;;;;1.45;0.60;;;;;;;;;;4992318;28;99270;-73
2022/04/03 13:40:38;;;;;;;1.00;0.80;;;;;;;;;;4992341;28;99516;-74
2022/04/03 13:43:09;;;;;;;0.70;0.70;;;;;;;;;;4994547;28;100975;-74
2022/04/03 13:48:21;;;;;;;0.80;0.80;;;;;;;;;;4990863;28;128471;-74
2022/04/03 13:50:47;;;;;;;1.75;1.00;;;;;;;;;;4992639;28;98188;-74
2022/04/03 13:53:13;;;;;;;0.60;0.60;;;;;;;;;;4992124;28;98611;-76
2022/04/03 13:55:41;;;;;;;0.80;0.80;;;;;;;;;;4991961;28;98829;-73
2022/04/03 13:58:07;;;;;;;0.40;0.40;;;;;;;;;;4991593;28;98390;-75
2022/04/03 14:00:33;;;;;;;0.43;0.43;;;;;;;;;;4992459;28;98297;-72
2022/04/03 14:03:00;;;;;;;0.80;0.80;;;;;;;;;;4990802;28;100874;-73
2022/04/03 14:05:26;;;;;;;0.75;0.60;;;;;;;;;;4995586;28;98592;-73
2022/04/03 14:07:53;;;;;;;0.93;0.60;;;;;;;;;;4991521;28;101052;-72
2022/04/03 14:10:19;;;;;;;0.88;0.50;;;;;;;;;;4986543;28;98917;-74
2022/04/03 14:12:45;;;;;;;0.50;0.50;;;;;;;;;;4992110;28;99806;-71
2022/04/03 14:15:12;;;;;;;0.52;0.52;;;;;;;;;;4991660;28;99540;-73
2022/04/03 14:17:38;;;;;;;0.38;0.30;;;;;;;;;;4987005;28;98469;-72
2022/04/03 14:20:08;;;;;;;0.60;0.60;;;;;;;;;;4992723;28;99856;-73
2022/04/03 14:22:38;;;;;;;1.27;0.65;;;;;;;;;;4991930;28;99392;-72
2022/04/03 14:25:05;;;;;;;1.00;0.90;;;;;;;;;;4991343;28;99327;-73
2022/04/03 14:27:31;;;;;;;0.82;0.70;;;;;;;;;;4993809;28;99971;-74
2022/04/03 14:29:58;;;;;;;1.17;0.80;;;;;;;;;;4992239;28;98462;-74
2022/04/03 14:32:24;;;;;;;0.73;0.73;;;;;;;;;;4991797;28;100283;-73
2022/04/03 14:34:51;;;;;;;3.05;0.80;;;;;;;;;;4991454;28;99646;-75
2022/04/03 14:37:17;;;;;;;0.82;0.70;;;;;;;;;;4995189;28;98577;-74
2022/04/03 14:39:43;;;;;;;3.40;0.70;;;;;;;;;;4995384;28;98877;-74
2022/04/03 14:42:10;;;;;;;0.98;0.65;;;;;;;;;;4994763;28;99914;-77
2022/04/03 14:44:36;;;;;;;1.63;0.90;;;;;;;;;;4994808;28;97707;-75
2022/04/03 14:47:05;;;;;;;0.80;0.80;;;;;;;;;;4993937;28;98415;-76